createdAt,value
2022-08-03T00:00:20.662Z,83.7
2022-08-03T00:05:20.435Z,82.9
2022-08-03T00:10:20.440Z,82.4
2022-08-03T00:15:20.491Z,82.0
2022-08-03T00:20:17.438Z,81.8
2022-08-03T00:25:17.370Z,81.7
2022-08-03T00:30:20.582Z,81.6
2022-08-03T00:35:36.693Z,81.1
2022-08-03T00:40:20.519Z,80.5
2022-08-03T00:45:20.426Z,80.2
2022-08-03T00:50:20.554Z,80.0
2022-08-03T00:55:20.563Z,80.0
2022-08-03T01:00:20.586Z,79.9
2022-08-03T01:05:20.849Z,79.6
2022-08-03T01:10:20.627Z,79.4
2022-08-03T01:15:17.425Z,79.0
2022-08-03T01:20:18.516Z,79.2
2022-08-03T01:25:18.662Z,79.2
2022-08-03T01:30:18.592Z,79.2
2022-08-03T01:35:18.577Z,79.1
2022-08-03T01:40:18.730Z,79.1
2022-08-03T01:45:18.648Z,79.3
2022-08-03T01:50:18.561Z,79.2
2022-08-03T01:55:15.507Z,79.1
2022-08-03T02:00:18.638Z,78.9
2022-08-03T02:05:18.591Z,78.6
2022-08-03T02:10:34.599Z,78.5
2022-08-03T02:15:18.788Z,78.4
2022-08-03T02:20:18.559Z,78.5
2022-08-03T02:25:18.652Z,78.4
2022-08-03T02:30:18.756Z,78.3
2022-08-03T02:35:18.634Z,78.1
2022-08-03T02:40:18.670Z,77.9
2022-08-03T02:45:15.564Z,77.8
2022-08-03T02:50:15.647Z,77.7
2022-08-03T02:55:18.712Z,77.8
2022-08-03T03:00:27.597Z,77.8
2022-08-03T03:05:55.790Z,77.8
2022-08-03T03:10:18.708Z,77.7
2022-08-03T03:15:18.698Z,77.5
2022-08-03T03:20:28.883Z,77.4
2022-08-03T03:25:18.726Z,77.4
2022-08-03T03:30:18.683Z,77.2
2022-08-03T03:35:18.853Z,77.0
2022-08-03T03:40:15.689Z,76.8
2022-08-03T03:45:18.815Z,76.6
2022-08-03T03:50:18.844Z,76.5
2022-08-03T03:55:19.038Z,76.5
2022-08-03T04:00:20.015Z,76.3
2022-08-03T04:05:20.085Z,76.2
2022-08-03T04:10:16.927Z,76.0
2022-08-03T04:15:17.126Z,75.9
2022-08-03T04:20:19.954Z,75.7
2022-08-03T04:25:20.090Z,75.5
2022-08-03T04:30:20.072Z,75.4
2022-08-03T04:35:19.954Z,75.3
2022-08-03T04:40:22.813Z,75.2
2022-08-03T04:45:20.045Z,75.1
2022-08-03T04:50:21.650Z,75.1
2022-08-03T04:55:20.071Z,75.0
2022-08-03T05:00:17.045Z,74.8
2022-08-03T05:05:16.970Z,74.8
2022-08-03T05:10:20.178Z,74.7
2022-08-03T05:15:20.082Z,74.5
2022-08-03T05:20:20.012Z,74.3
2022-08-03T05:25:23.364Z,74.1
2022-08-03T05:30:29.744Z,74.1
2022-08-03T05:36:00.784Z,74.0
2022-08-03T05:40:20.086Z,73.8
2022-08-03T05:45:20.176Z,73.7
2022-08-03T05:50:20.089Z,73.5
2022-08-03T05:55:17.010Z,73.4
2022-08-03T06:00:20.137Z,73.3
2022-08-03T06:05:20.434Z,73.3
2022-08-03T06:10:35.686Z,73.2
2022-08-03T06:15:20.178Z,73.1
2022-08-03T06:20:20.149Z,73.0
2022-08-03T06:25:21.211Z,72.8
2022-08-03T06:30:21.386Z,72.8
2022-08-03T06:35:20.318Z,72.8
2022-08-03T06:40:24.402Z,72.8
2022-08-03T06:45:17.134Z,72.9
2022-08-03T06:50:19.012Z,73.0
2022-08-03T06:55:20.277Z,73.0
2022-08-03T07:00:20.197Z,72.9
2022-08-03T07:05:20.297Z,72.9
2022-08-03T07:10:20.221Z,72.9
2022-08-03T07:15:38.366Z,72.8
2022-08-03T07:20:20.221Z,72.9
2022-08-03T07:25:20.216Z,72.6
2022-08-03T07:30:20.216Z,72.5
2022-08-03T07:35:24.420Z,72.4
2022-08-03T07:40:17.224Z,72.5
2022-08-03T07:45:17.240Z,72.3
2022-08-03T07:50:20.502Z,72.2
2022-08-03T07:55:20.333Z,72.1
2022-08-03T08:00:20.388Z,72.0
2022-08-03T08:05:20.276Z,71.9
2022-08-03T08:10:20.364Z,71.9
2022-08-03T08:15:20.218Z,71.9
2022-08-03T08:20:27.818Z,71.7
2022-08-03T08:25:20.518Z,71.7
2022-08-03T08:30:20.493Z,71.7
2022-08-03T08:35:17.167Z,71.7
2022-08-03T08:40:20.431Z,71.7
2022-08-03T08:45:20.350Z,71.6
2022-08-03T08:50:27.819Z,71.5
2022-08-03T08:55:20.357Z,71.4
2022-08-03T09:00:20.586Z,71.3
2022-08-03T09:05:27.828Z,71.2
2022-08-03T09:10:20.438Z,71.1
2022-08-03T09:15:20.413Z,71.1
2022-08-03T09:20:20.303Z,70.9
2022-08-03T09:25:25.166Z,70.8
2022-08-03T09:30:33.805Z,70.7
2022-08-03T09:35:33.063Z,70.5
2022-08-03T09:40:20.389Z,70.4
2022-08-03T09:45:20.486Z,70.2
2022-08-03T09:50:20.365Z,70.2
2022-08-03T09:56:01.776Z,70.2
2022-08-03T09:56:34.346Z,70.2
2022-08-03T10:00:20.422Z,70.0
2022-08-03T10:05:20.448Z,69.9
2022-08-03T10:10:31.160Z,69.8
2022-08-03T10:16:24.017Z,69.7
2022-08-03T10:16:26.133Z,69.7
2022-08-03T10:20:17.384Z,69.6
2022-08-03T10:25:17.411Z,69.6
2022-08-03T10:30:20.463Z,69.5
2022-08-03T10:35:21.408Z,69.5
2022-08-03T10:40:39.499Z,69.5
2022-08-03T10:45:20.568Z,69.6
2022-08-03T10:50:20.506Z,69.6
2022-08-03T10:55:20.615Z,69.7
2022-08-03T11:00:20.468Z,69.7
2022-08-03T11:05:20.517Z,69.7
2022-08-03T11:10:17.467Z,69.7
2022-08-03T11:15:17.455Z,70.0
2022-08-03T11:20:20.502Z,70.4
2022-08-03T11:25:53.211Z,70.9
2022-08-03T11:30:18.594Z,71.0
2022-08-03T11:35:18.725Z,71.3
2022-08-03T11:40:18.787Z,71.5
2022-08-03T11:45:18.549Z,71.5
2022-08-03T11:50:15.477Z,71.6
2022-08-03T11:55:15.581Z,71.9
2022-08-03T12:00:18.692Z,72.0
2022-08-03T12:05:18.683Z,71.9
2022-08-03T12:10:18.560Z,71.9
2022-08-03T12:15:18.545Z,71.9
2022-08-03T12:20:18.615Z,71.8
2022-08-03T12:25:18.781Z,71.7
2022-08-03T12:30:18.749Z,71.7
2022-08-03T12:35:18.571Z,71.7
2022-08-03T12:40:22.151Z,71.9
2022-08-03T12:45:15.562Z,72.2
2022-08-03T12:50:18.701Z,72.1
2022-08-03T12:55:18.694Z,72.1
2022-08-03T13:00:28.777Z,72.3
2022-08-03T13:05:18.689Z,72.7
2022-08-03T13:10:18.653Z,72.8
2022-08-03T13:15:18.682Z,72.9
2022-08-03T13:20:18.635Z,73.3
2022-08-03T13:25:18.720Z,73.3
2022-08-03T13:30:29.782Z,73.6
2022-08-03T13:35:16.562Z,74.0
2022-08-03T13:40:15.633Z,74.2
2022-08-03T13:45:18.780Z,74.6
2022-08-03T13:50:18.773Z,75.0
2022-08-03T13:55:18.855Z,75.1
2022-08-03T14:00:27.006Z,75.3
2022-08-03T14:05:18.866Z,76.1
2022-08-03T14:10:18.756Z,76.6
2022-08-03T14:15:18.753Z,77.2
2022-08-03T14:20:38.835Z,77.8
2022-08-03T14:25:18.753Z,78.8
2022-08-03T14:30:15.723Z,78.8
2022-08-03T14:35:15.706Z,79.0
2022-08-03T14:40:18.975Z,81.0
2022-08-03T14:45:20.209Z,81.8
2022-08-03T14:50:36.396Z,81.4
2022-08-03T14:55:18.892Z,81.5
2022-08-03T15:00:18.875Z,83.2
2022-08-03T15:05:18.808Z,83.9
2022-08-03T15:10:18.868Z,84.5
2022-08-03T15:15:18.912Z,84.1
2022-08-03T15:20:27.863Z,83.8
2022-08-03T15:26:03.613Z,84.4
2022-08-03T15:26:33.922Z,84.4
2022-08-03T15:30:16.010Z,83.4
2022-08-03T15:35:18.970Z,83.2
2022-08-03T15:40:18.960Z,83.7
2022-08-03T15:45:20.500Z,85.2
2022-08-03T15:50:19.049Z,84.2
2022-08-03T15:55:18.963Z,85.2
2022-08-03T16:00:18.875Z,85.3
2022-08-03T16:05:19.099Z,84.5
2022-08-03T16:10:18.937Z,85.2
2022-08-03T16:15:15.874Z,85.8
2022-08-03T16:20:31.199Z,85.7
2022-08-03T16:25:18.941Z,85.8
2022-08-03T16:30:18.978Z,86.9
2022-08-03T16:35:19.540Z,86.2
2022-08-03T16:40:19.509Z,86.4
2022-08-03T16:45:18.954Z,86.8
2022-08-03T16:50:20.048Z,87.5
2022-08-03T16:55:48.688Z,87.9
2022-08-03T17:00:33.602Z,87.6
2022-08-03T17:05:19.228Z,88.5
2022-08-03T17:10:15.970Z,85.4
2022-08-03T17:15:15.940Z,84.7
2022-08-03T17:20:18.914Z,85.2
2022-08-03T17:25:21.937Z,84.5
2022-08-03T17:30:20.229Z,84.1
2022-08-03T17:35:20.855Z,84.8
2022-08-03T17:40:19.134Z,86.8
2022-08-03T17:45:19.122Z,87.7
2022-08-03T17:50:24.723Z,88.5
2022-08-03T17:55:55.379Z,88.1
2022-08-03T18:00:19.083Z,87.4
2022-08-03T18:05:17.322Z,87.3
2022-08-03T18:10:19.237Z,87.4
2022-08-03T18:16:24.525Z,87.4
2022-08-03T18:20:32.725Z,87.2
2022-08-03T18:25:19.104Z,87.0
2022-08-03T18:30:19.138Z,86.4
2022-08-03T18:35:19.112Z,86.6
2022-08-03T18:40:20.998Z,86.7
2022-08-03T18:45:56.153Z,86.3
2022-08-03T18:50:19.607Z,86.4
2022-08-03T18:55:21.002Z,86.4
2022-08-03T19:00:16.081Z,86.4
2022-08-03T19:05:19.233Z,86.6
2022-08-03T19:10:19.211Z,87.1
2022-08-03T19:15:36.044Z,87.4
2022-08-03T19:20:19.098Z,86.4
2022-08-03T19:25:19.150Z,85.4
2022-08-03T19:30:26.119Z,84.2
2022-08-03T19:35:19.325Z,84.5
2022-08-03T19:40:19.883Z,84.7
2022-08-03T19:45:19.222Z,84.8
2022-08-03T19:50:16.312Z,84.5
2022-08-03T19:55:16.378Z,83.6
2022-08-03T20:00:19.715Z,83.4
2022-08-03T20:05:19.236Z,83.4
2022-08-03T20:10:19.275Z,83.2
2022-08-03T20:15:31.149Z,83.0
2022-08-03T20:20:19.260Z,82.5
2022-08-03T20:25:20.902Z,82.3
2022-08-03T20:30:19.404Z,82.3
2022-08-03T20:35:19.358Z,82.3
2022-08-03T20:40:16.372Z,82.3
2022-08-03T20:45:58.193Z,82.4
2022-08-03T20:50:19.319Z,82.6
2022-08-03T20:55:39.113Z,82.8
2022-08-03T20:56:24.849Z,82.8
2022-08-03T21:00:19.532Z,83.0
2022-08-03T21:05:21.243Z,82.7
2022-08-03T21:10:19.410Z,82.5
2022-08-03T21:12:57.372Z,87.4
2022-08-03T21:16:11.594Z,82.4
2022-08-03T21:20:19.306Z,82.3
